sensor_id;sensor_type;location;lat;lon;timestamp;temperature;humidity
20091;DHT22;10205;49.678;6.560;2023-04-15T00:00:38;15.40;50.00
20091;DHT22;10205;49.678;6.560;2023-04-15T00:03:05;15.40;50.00
20091;DHT22;10205;49.678;6.560;2023-04-15T00:05:33;15.30;50.10
20091;DHT22;10205;49.678;6.560;2023-04-15T00:08:01;15.30;50.20
20091;DHT22;10205;49.678;6.560;2023-04-15T00:10:28;15.30;50.30
20091;DHT22;10205;49.678;6.560;2023-04-15T00:12:58;15.20;50.30
20091;DHT22;10205;49.678;6.560;2023-04-15T00:15:25;15.20;50.30
20091;DHT22;10205;49.678;6.560;2023-04-15T00:17:55;15.20;50.40
20091;DHT22;10205;49.678;6.560;2023-04-15T00:20:22;15.10;50.50
20091;DHT22;10205;49.678;6.560;2023-04-15T00:22:50;15.10;50.50
20091;DHT22;10205;49.678;6.560;2023-04-15T00:25:21;15.10;50.60
20091;DHT22;10205;49.678;6.560;2023-04-15T00:27:48;15.00;50.70
20091;DHT22;10205;49.678;6.560;2023-04-15T00:30:18;15.00;50.60
20091;DHT22;10205;49.678;6.560;2023-04-15T00:32:45;15.00;50.70
20091;DHT22;10205;49.678;6.560;2023-04-15T00:35:13;14.90;50.60
20091;DHT22;10205;49.678;6.560;2023-04-15T00:37:41;15.00;50.70
20091;DHT22;10205;49.678;6.560;2023-04-15T00:40:11;14.90;50.70
20091;DHT22;10205;49.678;6.560;2023-04-15T00:42:40;14.90;50.80
20091;DHT22;10205;49.678;6.560;2023-04-15T00:45:08;14.90;50.80
20091;DHT22;10205;49.678;6.560;2023-04-15T00:47:36;14.80;50.80
20091;DHT22;10205;49.678;6.560;2023-04-15T00:50:08;14.80;50.90
20091;DHT22;10205;49.678;6.560;2023-04-15T00:52:35;14.80;50.90
20091;DHT22;10205;49.678;6.560;2023-04-15T00:55:04;14.80;51.00
20091;DHT22;10205;49.678;6.560;2023-04-15T00:57:32;14.70;50.90
20091;DHT22;10205;49.678;6.560;2023-04-15T01:00:01;14.70;51.00
20091;DHT22;10205;49.678;6.560;2023-04-15T01:02:30;14.70;51.10
20091;DHT22;10205;49.678;6.560;2023-04-15T01:04:57;14.60;51.10
20091;DHT22;10205;49.678;6.560;2023-04-15T01:07:25;14.60;51.20
20091;DHT22;10205;49.678;6.560;2023-04-15T01:09:52;14.60;51.20
20091;DHT22;10205;49.678;6.560;2023-04-15T01:12:20;14.60;51.30
20091;DHT22;10205;49.678;6.560;2023-04-15T01:14:47;14.50;51.20
20091;DHT22;10205;49.678;6.560;2023-04-15T01:17:16;14.50;51.30
20091;DHT22;10205;49.678;6.560;2023-04-15T01:19:43;14.50;51.40
20091;DHT22;10205;49.678;6.560;2023-04-15T01:22:11;14.50;51.40
20091;DHT22;10205;49.678;6.560;2023-04-15T01:24:39;14.50;51.50
20091;DHT22;10205;49.678;6.560;2023-04-15T01:27:09;14.50;51.50
20091;DHT22;10205;49.678;6.560;2023-04-15T01:29:37;14.50;51.50
20091;DHT22;10205;49.678;6.560;2023-04-15T01:32:06;14.40;51.50
20091;DHT22;10205;49.678;6.560;2023-04-15T01:34:33;14.40;51.60
20091;DHT22;10205;49.678;6.560;2023-04-15T01:37:00;14.40;51.60
20091;DHT22;10205;49.678;6.560;2023-04-15T01:39:27;14.40;51.60
20091;DHT22;10205;49.678;6.560;2023-04-15T01:41:55;14.30;51.60
20091;DHT22;10205;49.678;6.560;2023-04-15T01:44:24;14.30;51.70
20091;DHT22;10205;49.678;6.560;2023-04-15T01:46:52;14.30;51.80
20091;DHT22;10205;49.678;6.560;2023-04-15T01:49:19;14.30;51.80
20091;DHT22;10205;49.678;6.560;2023-04-15T01:51:47;14.30;51.80
20091;DHT22;10205;49.678;6.560;2023-04-15T01:54:14;14.20;51.80
20091;DHT22;10205;49.678;6.560;2023-04-15T01:56:41;14.20;51.80
20091;DHT22;10205;49.678;6.560;2023-04-15T01:59:08;14.20;51.80
20091;DHT22;10205;49.678;6.560;2023-04-15T02:01:37;14.20;51.90
20091;DHT22;10205;49.678;6.560;2023-04-15T02:04:04;14.20;52.00
20091;DHT22;10205;49.678;6.560;2023-04-15T02:06:32;14.20;52.00
20091;DHT22;10205;49.678;6.560;2023-04-15T02:08:59;14.10;52.00
20091;DHT22;10205;49.678;6.560;2023-04-15T02:11:26;14.10;52.00
20091;DHT22;10205;49.678;6.560;2023-04-15T02:13:53;14.10;52.10
20091;DHT22;10205;49.678;6.560;2023-04-15T02:16:21;14.10;52.10
20091;DHT22;10205;49.678;6.560;2023-04-15T02:18:49;14.10;52.10
20091;DHT22;10205;49.678;6.560;2023-04-15T02:21:19;14.00;52.20
20091;DHT22;10205;49.678;6.560;2023-04-15T02:23:46;14.00;52.20
20091;DHT22;10205;49.678;6.560;2023-04-15T02:26:13;14.00;52.20
20091;DHT22;10205;49.678;6.560;2023-04-15T02:28:40;14.00;52.20
20091;DHT22;10205;49.678;6.560;2023-04-15T02:31:08;13.90;52.20
20091;DHT22;10205;49.678;6.560;2023-04-15T02:33:35;13.90;52.30
20091;DHT22;10205;49.678;6.560;2023-04-15T02:36:04;13.90;52.30
20091;DHT22;10205;49.678;6.560;2023-04-15T02:38:32;13.90;52.40
20091;DHT22;10205;49.678;6.560;2023-04-15T02:40:59;13.90;52.40
20091;DHT22;10205;49.678;6.560;2023-04-15T02:43:27;13.90;52.50
20091;DHT22;10205;49.678;6.560;2023-04-15T02:45:54;13.80;52.40
20091;DHT22;10205;49.678;6.560;2023-04-15T02:48:21;13.80;52.50
20091;DHT22;10205;49.678;6.560;2023-04-15T02:50:48;13.80;52.50
20091;DHT22;10205;49.678;6.560;2023-04-15T02:53:17;13.80;52.50
20091;DHT22;10205;49.678;6.560;2023-04-15T02:55:44;13.80;52.60
20091;DHT22;10205;49.678;6.560;2023-04-15T02:58:11;13.70;52.50
20091;DHT22;10205;49.678;6.560;2023-04-15T03:00:41;13.70;53.20
20091;DHT22;10205;49.678;6.560;2023-04-15T03:03:08;13.70;52.60
20091;DHT22;10205;49.678;6.560;2023-04-15T03:05:36;13.70;52.50
20091;DHT22;10205;49.678;6.560;2023-04-15T03:08:04;13.70;52.50
20091;DHT22;10205;49.678;6.560;2023-04-15T03:10:32;13.70;52.50
20091;DHT22;10205;49.678;6.560;2023-04-15T03:12:59;13.60;52.60
20091;DHT22;10205;49.678;6.560;2023-04-15T03:15:27;13.50;52.40
20091;DHT22;10205;49.678;6.560;2023-04-15T03:17:54;13.50;53.00
20091;DHT22;10205;49.678;6.560;2023-04-15T03:20:21;13.50;52.70
20091;DHT22;10205;49.678;6.560;2023-04-15T03:22:48;13.50;52.70
20091;DHT22;10205;49.678;6.560;2023-04-15T03:25:16;13.40;52.50
20091;DHT22;10205;49.678;6.560;2023-04-15T03:27:44;13.40;52.70
20091;DHT22;10205;49.678;6.560;2023-04-15T03:30:12;13.40;52.80
20091;DHT22;10205;49.678;6.560;2023-04-15T03:32:39;13.30;52.70
20091;DHT22;10205;49.678;6.560;2023-04-15T03:35:07;13.30;52.70
20091;DHT22;10205;49.678;6.560;2023-04-15T03:37:35;13.30;52.80
20091;DHT22;10205;49.678;6.560;2023-04-15T03:40:02;13.30;52.70
20091;DHT22;10205;49.678;6.560;2023-04-15T03:42:30;13.30;52.80
20091;DHT22;10205;49.678;6.560;2023-04-15T03:44:58;13.20;52.80
20091;DHT22;10205;49.678;6.560;2023-04-15T03:47:26;13.20;52.90
20091;DHT22;10205;49.678;6.560;2023-04-15T03:49:53;13.20;52.80
20091;DHT22;10205;49.678;6.560;2023-04-15T03:52:20;13.10;52.80
20091;DHT22;10205;49.678;6.560;2023-04-15T03:54:47;13.10;52.70
20091;DHT22;10205;49.678;6.560;2023-04-15T03:57:14;13.10;52.70
20091;DHT22;10205;49.678;6.560;2023-04-15T03:59:41;13.00;52.80
20091;DHT22;10205;49.678;6.560;2023-04-15T04:02:10;13.00;52.90
20091;DHT22;10205;49.678;6.560;2023-04-15T04:04:38;13.00;52.90
20091;DHT22;10205;49.678;6.560;2023-04-15T04:07:06;13.00;52.90
20091;DHT22;10205;49.678;6.560;2023-04-15T04:09:33;12.90;52.90
20091;DHT22;10205;49.678;6.560;2023-04-15T04:12:00;12.90;52.90
20091;DHT22;10205;49.678;6.560;2023-04-15T04:14:28;12.80;52.90
20091;DHT22;10205;49.678;6.560;2023-04-15T04:16:55;12.80;53.00
20091;DHT22;10205;49.678;6.560;2023-04-15T04:19:24;12.80;53.00
20091;DHT22;10205;49.678;6.560;2023-04-15T04:21:51;12.80;53.10
20091;DHT22;10205;49.678;6.560;2023-04-15T04:24:18;12.70;53.10
20091;DHT22;10205;49.678;6.560;2023-04-15T04:26:45;12.70;53.70
20091;DHT22;10205;49.678;6.560;2023-04-15T04:29:13;12.70;53.20
20091;DHT22;10205;49.678;6.560;2023-04-15T04:31:40;12.70;53.30
20091;DHT22;10205;49.678;6.560;2023-04-15T04:34:07;12.70;53.30
20091;DHT22;10205;49.678;6.560;2023-04-15T04:36:35;12.60;53.30
20091;DHT22;10205;49.678;6.560;2023-04-15T04:39:03;12.60;53.40
20091;DHT22;10205;49.678;6.560;2023-04-15T04:41:30;12.60;53.30
20091;DHT22;10205;49.678;6.560;2023-04-15T04:43:57;12.60;53.30
20091;DHT22;10205;49.678;6.560;2023-04-15T04:46:24;12.50;53.40
20091;DHT22;10205;49.678;6.560;2023-04-15T04:48:52;12.50;53.50
20091;DHT22;10205;49.678;6.560;2023-04-15T04:51:19;12.50;53.50
20091;DHT22;10205;49.678;6.560;2023-04-15T04:53:48;12.50;53.50
20091;DHT22;10205;49.678;6.560;2023-04-15T04:56:15;12.50;53.60
20091;DHT22;10205;49.678;6.560;2023-04-15T04:58:42;12.40;53.50
20091;DHT22;10205;49.678;6.560;2023-04-15T05:01:10;12.40;53.60
20091;DHT22;10205;49.678;6.560;2023-04-15T05:03:37;12.30;54.30
20091;DHT22;10205;49.678;6.560;2023-04-15T05:06:05;12.30;53.80
20091;DHT22;10205;49.678;6.560;2023-04-15T05:08:33;12.30;53.80
20091;DHT22;10205;49.678;6.560;2023-04-15T05:11:02;12.30;53.90
20091;DHT22;10205;49.678;6.560;2023-04-15T05:13:29;12.20;53.80
20091;DHT22;10205;49.678;6.560;2023-04-15T05:15:57;12.20;53.80
20091;DHT22;10205;49.678;6.560;2023-04-15T05:18:24;12.20;53.80
20091;DHT22;10205;49.678;6.560;2023-04-15T05:20:51;12.10;53.90
20091;DHT22;10205;49.678;6.560;2023-04-15T05:23:18;12.10;54.00
20091;DHT22;10205;49.678;6.560;2023-04-15T05:25:46;12.10;54.00
20091;DHT22;10205;49.678;6.560;2023-04-15T05:28:14;12.10;54.10
20091;DHT22;10205;49.678;6.560;2023-04-15T05:30:42;12.10;54.10
20091;DHT22;10205;49.678;6.560;2023-04-15T05:33:09;12.00;54.00
20091;DHT22;10205;49.678;6.560;2023-04-15T05:35:39;12.00;54.00
20091;DHT22;10205;49.678;6.560;2023-04-15T05:38:06;12.00;54.10
20091;DHT22;10205;49.678;6.560;2023-04-15T05:40:33;12.00;54.10
20091;DHT22;10205;49.678;6.560;2023-04-15T05:43:00;11.90;54.10
20091;DHT22;10205;49.678;6.560;2023-04-15T05:45:29;11.90;54.20
20091;DHT22;10205;49.678;6.560;2023-04-15T05:47:57;11.90;54.20
20091;DHT22;10205;49.678;6.560;2023-04-15T05:50:27;11.80;54.10
20091;DHT22;10205;49.678;6.560;2023-04-15T05:52:55;11.80;54.20
20091;DHT22;10205;49.678;6.560;2023-04-15T05:55:22;11.80;54.20
20091;DHT22;10205;49.678;6.560;2023-04-15T05:57:49;11.80;54.30
20091;DHT22;10205;49.678;6.560;2023-04-15T06:00:17;11.70;54.30
20091;DHT22;10205;49.678;6.560;2023-04-15T06:02:46;11.70;54.40
20091;DHT22;10205;49.678;6.560;2023-04-15T06:05:13;11.70;54.60
20091;DHT22;10205;49.678;6.560;2023-04-15T06:07:40;11.70;54.70
20091;DHT22;10205;49.678;6.560;2023-04-15T06:10:09;11.70;54.70
20091;DHT22;10205;49.678;6.560;2023-04-15T06:12:36;11.70;54.80
20091;DHT22;10205;49.678;6.560;2023-04-15T06:15:04;11.70;54.80
20091;DHT22;10205;49.678;6.560;2023-04-15T06:17:34;11.70;54.80
20091;DHT22;10205;49.678;6.560;2023-04-15T06:20:04;11.60;54.80
20091;DHT22;10205;49.678;6.560;2023-04-15T06:22:33;11.70;54.90
20091;DHT22;10205;49.678;6.560;2023-04-15T06:25:00;11.70;54.80
20091;DHT22;10205;49.678;6.560;2023-04-15T06:27:27;11.70;54.90
20091;DHT22;10205;49.678;6.560;2023-04-15T06:29:55;11.60;54.90
20091;DHT22;10205;49.678;6.560;2023-04-15T06:32:22;11.60;55.60
20091;DHT22;10205;49.678;6.560;2023-04-15T06:34:49;11.60;54.90
20091;DHT22;10205;49.678;6.560;2023-04-15T06:37:18;11.70;54.90
20091;DHT22;10205;49.678;6.560;2023-04-15T06:39:45;11.70;55.00
20091;DHT22;10205;49.678;6.560;2023-04-15T06:42:12;11.60;54.90
20091;DHT22;10205;49.678;6.560;2023-04-15T06:44:39;11.70;55.00
20091;DHT22;10205;49.678;6.560;2023-04-15T06:47:07;11.70;55.00
20091;DHT22;10205;49.678;6.560;2023-04-15T06:49:34;11.70;54.90
20091;DHT22;10205;49.678;6.560;2023-04-15T06:52:01;11.70;54.90
20091;DHT22;10205;49.678;6.560;2023-04-15T06:54:30;11.70;55.00
20091;DHT22;10205;49.678;6.560;2023-04-15T06:56:58;11.70;55.00
20091;DHT22;10205;49.678;6.560;2023-04-15T06:59:25;11.70;54.90
20091;DHT22;10205;49.678;6.560;2023-04-15T07:01:52;11.70;54.90
20091;DHT22;10205;49.678;6.560;2023-04-15T07:04:20;11.70;54.90
20091;DHT22;10205;49.678;6.560;2023-04-15T07:06:47;11.70;54.90
20091;DHT22;10205;49.678;6.560;2023-04-15T07:09:14;11.80;54.90
20091;DHT22;10205;49.678;6.560;2023-04-15T07:11:43;11.80;54.90
20091;DHT22;10205;49.678;6.560;2023-04-15T07:14:10;11.80;54.90
20091;DHT22;10205;49.678;6.560;2023-04-15T07:16:37;11.80;54.90
20091;DHT22;10205;49.678;6.560;2023-04-15T07:19:04;11.80;54.90
20091;DHT22;10205;49.678;6.560;2023-04-15T07:21:31;11.90;55.00
20091;DHT22;10205;49.678;6.560;2023-04-15T07:23:59;11.90;55.00
20091;DHT22;10205;49.678;6.560;2023-04-15T07:26:26;11.90;55.00
20091;DHT22;10205;49.678;6.560;2023-04-15T07:28:54;12.00;55.10
20091;DHT22;10205;49.678;6.560;2023-04-15T07:31:22;12.00;55.00
20091;DHT22;10205;49.678;6.560;2023-04-15T07:33:49;12.00;55.70
20091;DHT22;10205;49.678;6.560;2023-04-15T07:36:16;12.10;55.70
20091;DHT22;10205;49.678;6.560;2023-04-15T07:38:44;12.10;54.90
20091;DHT22;10205;49.678;6.560;2023-04-15T07:41:11;12.10;54.80
20091;DHT22;10205;49.678;6.560;2023-04-15T07:43:38;12.20;54.90
20091;DHT22;10205;49.678;6.560;2023-04-15T07:46:07;12.20;54.80
20091;DHT22;10205;49.678;6.560;2023-04-15T07:48:34;12.30;54.80
20091;DHT22;10205;49.678;6.560;2023-04-15T07:51:01;12.30;54.70
20091;DHT22;10205;49.678;6.560;2023-04-15T07:53:30;12.40;55.40
20091;DHT22;10205;49.678;6.560;2023-04-15T07:55:58;12.40;54.60
20091;DHT22;10205;49.678;6.560;2023-04-15T07:58:25;12.50;54.60
20091;DHT22;10205;49.678;6.560;2023-04-15T08:00:53;12.50;54.80
20091;DHT22;10205;49.678;6.560;2023-04-15T08:03:22;12.60;54.40
20091;DHT22;10205;49.678;6.560;2023-04-15T08:05:49;12.70;54.40
20091;DHT22;10205;49.678;6.560;2023-04-15T08:08:16;12.70;54.30
20091;DHT22;10205;49.678;6.560;2023-04-15T08:10:43;12.80;54.20
20091;DHT22;10205;49.678;6.560;2023-04-15T08:13:11;12.80;54.00
20091;DHT22;10205;49.678;6.560;2023-04-15T08:15:38;12.90;54.00
20091;DHT22;10205;49.678;6.560;2023-04-15T08:18:05;13.00;53.60
20091;DHT22;10205;49.678;6.560;2023-04-15T08:20:34;13.10;53.60
20091;DHT22;10205;49.678;6.560;2023-04-15T08:23:01;13.10;53.50
20091;DHT22;10205;49.678;6.560;2023-04-15T08:25:29;13.30;53.20
20091;DHT22;10205;49.678;6.560;2023-04-15T08:27:56;13.30;53.30
20091;DHT22;10205;49.678;6.560;2023-04-15T08:30:23;13.40;53.40
20091;DHT22;10205;49.678;6.560;2023-04-15T08:32:50;13.50;53.00
20091;DHT22;10205;49.678;6.560;2023-04-15T08:35:17;13.50;53.00
20091;DHT22;10205;49.678;6.560;2023-04-15T08:37:46;13.60;52.90
20091;DHT22;10205;49.678;6.560;2023-04-15T08:40:13;13.70;52.80
20091;DHT22;10205;49.678;6.560;2023-04-15T08:42:43;13.80;52.50
20091;DHT22;10205;49.678;6.560;2023-04-15T08:45:15;13.90;52.50
20091;DHT22;10205;49.678;6.560;2023-04-15T08:47:44;14.00;52.30
20091;DHT22;10205;49.678;6.560;2023-04-15T08:50:15;14.00;52.30
20091;DHT22;10205;49.678;6.560;2023-04-15T08:52:43;14.10;52.40
20091;DHT22;10205;49.678;6.560;2023-04-15T08:55:12;14.20;52.30
20091;DHT22;10205;49.678;6.560;2023-04-15T08:57:41;14.30;52.20
20091;DHT22;10205;49.678;6.560;2023-04-15T09:00:09;14.40;52.20
20091;DHT22;10205;49.678;6.560;2023-04-15T09:02:37;14.50;52.10
20091;DHT22;10205;49.678;6.560;2023-04-15T09:05:06;14.60;51.90
20091;DHT22;10205;49.678;6.560;2023-04-15T09:07:34;14.70;52.10
20091;DHT22;10205;49.678;6.560;2023-04-15T09:10:02;14.80;52.00
20091;DHT22;10205;49.678;6.560;2023-04-15T09:12:33;14.80;52.60
20091;DHT22;10205;49.678;6.560;2023-04-15T09:15:01;14.90;51.60
20091;DHT22;10205;49.678;6.560;2023-04-15T09:17:32;15.00;51.40
20091;DHT22;10205;49.678;6.560;2023-04-15T09:20:09;15.20;51.80
20091;DHT22;10205;49.678;6.560;2023-04-15T09:22:39;15.30;50.00
20091;DHT22;10205;49.678;6.560;2023-04-15T09:25:25;15.40;50.70
20091;DHT22;10205;49.678;6.560;2023-04-15T09:27:56;15.50;49.90
20091;DHT22;10205;49.678;6.560;2023-04-15T09:30:24;15.60;50.30
20091;DHT22;10205;49.678;6.560;2023-04-15T09:32:53;15.70;50.10
20091;DHT22;10205;49.678;6.560;2023-04-15T09:35:22;15.80;49.90
20091;DHT22;10205;49.678;6.560;2023-04-15T09:37:51;15.90;49.60
20091;DHT22;10205;49.678;6.560;2023-04-15T09:40:31;16.00;49.40
20091;DHT22;10205;49.678;6.560;2023-04-15T09:43:01;16.10;48.30
20091;DHT22;10205;49.678;6.560;2023-04-15T09:45:30;16.20;48.10
20091;DHT22;10205;49.678;6.560;2023-04-15T09:47:59;16.30;47.80
20091;DHT22;10205;49.678;6.560;2023-04-15T09:50:41;16.30;47.70
20091;DHT22;10205;49.678;6.560;2023-04-15T09:53:09;16.50;47.40
20091;DHT22;10205;49.678;6.560;2023-04-15T09:55:37;16.60;47.10
20091;DHT22;10205;49.678;6.560;2023-04-15T09:58:17;16.70;47.30
20091;DHT22;10205;49.678;6.560;2023-04-15T10:00:46;16.80;45.70
20091;DHT22;10205;49.678;6.560;2023-04-15T10:03:18;16.90;45.50
20091;DHT22;10205;49.678;6.560;2023-04-15T10:05:47;17.00;45.50
20091;DHT22;10205;49.678;6.560;2023-04-15T10:08:18;17.10;45.70
20091;DHT22;10205;49.678;6.560;2023-04-15T10:10:47;17.20;45.80
20091;DHT22;10205;49.678;6.560;2023-04-15T10:13:18;17.30;45.40
20091;DHT22;10205;49.678;6.560;2023-04-15T10:15:50;17.40;44.40
20091;DHT22;10205;49.678;6.560;2023-04-15T10:18:19;17.50;44.70
20091;DHT22;10205;49.678;6.560;2023-04-15T10:20:49;17.60;44.90
20091;DHT22;10205;49.678;6.560;2023-04-15T10:23:17;17.70;44.90
20091;DHT22;10205;49.678;6.560;2023-04-15T10:25:46;17.80;44.60
20091;DHT22;10205;49.678;6.560;2023-04-15T10:28:16;17.90;44.30
20091;DHT22;10205;49.678;6.560;2023-04-15T10:30:43;18.00;43.60
20091;DHT22;10205;49.678;6.560;2023-04-15T10:33:13;18.10;44.00
20091;DHT22;10205;49.678;6.560;2023-04-15T10:35:41;18.20;44.80
20091;DHT22;10205;49.678;6.560;2023-04-15T10:38:31;18.30;44.00
20091;DHT22;10205;49.678;6.560;2023-04-15T10:41:16;18.40;43.60
20091;DHT22;10205;49.678;6.560;2023-04-15T10:43:48;18.60;43.60
20091;DHT22;10205;49.678;6.560;2023-04-15T10:46:35;18.70;43.80
20091;DHT22;10205;49.678;6.560;2023-04-15T10:49:07;18.80;43.30
20091;DHT22;10205;49.678;6.560;2023-04-15T10:51:37;18.90;43.30
20091;DHT22;10205;49.678;6.560;2023-04-15T10:54:09;18.90;43.10
20091;DHT22;10205;49.678;6.560;2023-04-15T10:56:41;19.00;43.00
20091;DHT22;10205;49.678;6.560;2023-04-15T10:59:10;19.10;43.20
20091;DHT22;10205;49.678;6.560;2023-04-15T11:01:51;19.20;42.90
20091;DHT22;10205;49.678;6.560;2023-04-15T11:04:52;19.30;42.00
20091;DHT22;10205;49.678;6.560;2023-04-15T11:07:36;19.40;41.50
20091;DHT22;10205;49.678;6.560;2023-04-15T11:13:20;19.50;41.40
20091;DHT22;10205;49.678;6.560;2023-04-15T11:15:55;19.60;42.10
20091;DHT22;10205;49.678;6.560;2023-04-15T11:18:31;19.70;40.80
20091;DHT22;10205;49.678;6.560;2023-04-15T11:21:04;19.80;41.50
20091;DHT22;10205;49.678;6.560;2023-04-15T11:23:36;19.80;40.90
20091;DHT22;10205;49.678;6.560;2023-04-15T11:26:05;19.90;40.80
20091;DHT22;10205;49.678;6.560;2023-04-15T11:28:37;19.90;40.70
20091;DHT22;10205;49.678;6.560;2023-04-15T11:31:09;20.00;40.30
20091;DHT22;10205;49.678;6.560;2023-04-15T11:33:43;20.10;40.50
20091;DHT22;10205;49.678;6.560;2023-04-15T11:36:12;20.20;40.10
20091;DHT22;10205;49.678;6.560;2023-04-15T11:38:42;20.20;40.80
20091;DHT22;10205;49.678;6.560;2023-04-15T11:41:11;20.30;39.70
20091;DHT22;10205;49.678;6.560;2023-04-15T11:43:38;20.40;39.20
20091;DHT22;10205;49.678;6.560;2023-04-15T11:46:07;20.40;39.60
20091;DHT22;10205;49.678;6.560;2023-04-15T11:48:35;20.50;38.30
20091;DHT22;10205;49.678;6.560;2023-04-15T11:51:03;20.50;38.90
20091;DHT22;10205;49.678;6.560;2023-04-15T11:53:36;20.60;38.50
20091;DHT22;10205;49.678;6.560;2023-04-15T11:56:06;20.60;37.80
20091;DHT22;10205;49.678;6.560;2023-04-15T11:58:35;20.70;38.30
20091;DHT22;10205;49.678;6.560;2023-04-15T12:01:05;20.70;38.40
20091;DHT22;10205;49.678;6.560;2023-04-15T12:03:37;20.80;38.90
20091;DHT22;10205;49.678;6.560;2023-04-15T12:06:11;20.80;38.40
20091;DHT22;10205;49.678;6.560;2023-04-15T12:08:48;20.90;38.40
20091;DHT22;10205;49.678;6.560;2023-04-15T12:11:29;20.90;37.90
20091;DHT22;10205;49.678;6.560;2023-04-15T12:14:19;21.00;38.50
20091;DHT22;10205;49.678;6.560;2023-04-15T12:16:50;21.00;38.40
20091;DHT22;10205;49.678;6.560;2023-04-15T12:19:23;21.00;37.70
20091;DHT22;10205;49.678;6.560;2023-04-15T12:21:56;21.00;37.20
20091;DHT22;10205;49.678;6.560;2023-04-15T12:24:24;21.10;36.90
20091;DHT22;10205;49.678;6.560;2023-04-15T12:26:53;21.10;37.30
20091;DHT22;10205;49.678;6.560;2023-04-15T12:29:25;21.10;35.80
20091;DHT22;10205;49.678;6.560;2023-04-15T12:31:56;21.10;35.90
20091;DHT22;10205;49.678;6.560;2023-04-15T12:34:28;21.20;36.20
20091;DHT22;10205;49.678;6.560;2023-04-15T12:36:58;21.20;36.00
20091;DHT22;10205;49.678;6.560;2023-04-15T12:39:27;21.20;36.10
20091;DHT22;10205;49.678;6.560;2023-04-15T12:41:57;21.20;36.10
20091;DHT22;10205;49.678;6.560;2023-04-15T12:44:25;21.30;35.90
20091;DHT22;10205;49.678;6.560;2023-04-15T12:46:52;21.30;35.60
20091;DHT22;10205;49.678;6.560;2023-04-15T12:49:22;21.40;35.90
20091;DHT22;10205;49.678;6.560;2023-04-15T12:51:51;21.40;35.40
20091;DHT22;10205;49.678;6.560;2023-04-15T12:54:20;21.40;34.50
20091;DHT22;10205;49.678;6.560;2023-04-15T12:56:49;21.40;35.00
20091;DHT22;10205;49.678;6.560;2023-04-15T12:59:16;21.40;34.70
20091;DHT22;10205;49.678;6.560;2023-04-15T13:01:44;21.40;34.30
20091;DHT22;10205;49.678;6.560;2023-04-15T13:04:14;21.50;34.50
20091;DHT22;10205;49.678;6.560;2023-04-15T13:06:43;21.50;34.90
20091;DHT22;10205;49.678;6.560;2023-04-15T13:09:11;21.40;34.60
20091;DHT22;10205;49.678;6.560;2023-04-15T13:11:38;21.50;34.20
20091;DHT22;10205;49.678;6.560;2023-04-15T13:14:07;21.50;34.50
20091;DHT22;10205;49.678;6.560;2023-04-15T13:16:36;21.50;34.60
20091;DHT22;10205;49.678;6.560;2023-04-15T13:19:03;21.50;34.70
20091;DHT22;10205;49.678;6.560;2023-04-15T13:21:32;21.50;34.30
20091;DHT22;10205;49.678;6.560;2023-04-15T13:23:59;21.50;34.30
20091;DHT22;10205;49.678;6.560;2023-04-15T13:26:27;21.50;34.40
20091;DHT22;10205;49.678;6.560;2023-04-15T13:28:55;21.50;34.10
20091;DHT22;10205;49.678;6.560;2023-04-15T13:31:22;21.50;34.10
20091;DHT22;10205;49.678;6.560;2023-04-15T13:33:50;21.50;34.30
20091;DHT22;10205;49.678;6.560;2023-04-15T13:36:17;21.60;34.20
20091;DHT22;10205;49.678;6.560;2023-04-15T13:38:45;21.50;34.20
20091;DHT22;10205;49.678;6.560;2023-04-15T13:41:12;21.60;34.10
20091;DHT22;10205;49.678;6.560;2023-04-15T13:43:40;21.50;34.10
20091;DHT22;10205;49.678;6.560;2023-04-15T13:46:07;21.60;33.90
20091;DHT22;10205;49.678;6.560;2023-04-15T13:48:34;21.50;34.00
20091;DHT22;10205;49.678;6.560;2023-04-15T13:51:01;21.60;34.10
20091;DHT22;10205;49.678;6.560;2023-04-15T13:53:28;21.50;33.90
20091;DHT22;10205;49.678;6.560;2023-04-15T13:55:57;21.50;33.80
20091;DHT22;10205;49.678;6.560;2023-04-15T13:58:24;21.50;33.50
20091;DHT22;10205;49.678;6.560;2023-04-15T14:00:51;21.50;33.60
20091;DHT22;10205;49.678;6.560;2023-04-15T14:03:18;21.50;34.00
20091;DHT22;10205;49.678;6.560;2023-04-15T14:05:45;21.50;33.60
20091;DHT22;10205;49.678;6.560;2023-04-15T14:08:17;21.50;33.90
20091;DHT22;10205;49.678;6.560;2023-04-15T14:10:47;21.50;33.90
20091;DHT22;10205;49.678;6.560;2023-04-15T14:13:16;21.50;34.20
20091;DHT22;10205;49.678;6.560;2023-04-15T14:15:44;21.50;34.20
20091;DHT22;10205;49.678;6.560;2023-04-15T14:18:11;21.50;33.80
20091;DHT22;10205;49.678;6.560;2023-04-15T14:20:38;21.50;33.90
20091;DHT22;10205;49.678;6.560;2023-04-15T14:23:05;21.50;34.00
20091;DHT22;10205;49.678;6.560;2023-04-15T14:25:32;21.50;33.90
20091;DHT22;10205;49.678;6.560;2023-04-15T14:28:00;21.50;34.00
20091;DHT22;10205;49.678;6.560;2023-04-15T14:30:29;21.50;34.00
20091;DHT22;10205;49.678;6.560;2023-04-15T14:32:56;21.50;34.00
20091;DHT22;10205;49.678;6.560;2023-04-15T14:35:23;21.50;33.90
20091;DHT22;10205;49.678;6.560;2023-04-15T14:37:51;21.40;33.90
20091;DHT22;10205;49.678;6.560;2023-04-15T14:40:19;21.40;34.00
20091;DHT22;10205;49.678;6.560;2023-04-15T14:42:46;21.40;34.30
20091;DHT22;10205;49.678;6.560;2023-04-15T14:45:14;21.40;35.40
20091;DHT22;10205;49.678;6.560;2023-04-15T14:47:43;21.40;34.30
20091;DHT22;10205;49.678;6.560;2023-04-15T14:50:13;21.40;34.30
20091;DHT22;10205;49.678;6.560;2023-04-15T14:52:40;21.40;34.40
20091;DHT22;10205;49.678;6.560;2023-04-15T14:55:09;21.40;34.40
20091;DHT22;10205;49.678;6.560;2023-04-15T14:57:37;21.40;34.50
20091;DHT22;10205;49.678;6.560;2023-04-15T15:00:06;21.40;34.80
20091;DHT22;10205;49.678;6.560;2023-04-15T15:02:35;21.30;34.80
20091;DHT22;10205;49.678;6.560;2023-04-15T15:05:06;21.30;34.90
20091;DHT22;10205;49.678;6.560;2023-04-15T15:07:33;21.30;35.10
20091;DHT22;10205;49.678;6.560;2023-04-15T15:10:01;21.30;35.10
20091;DHT22;10205;49.678;6.560;2023-04-15T15:12:29;21.20;35.10
20091;DHT22;10205;49.678;6.560;2023-04-15T15:14:56;21.20;35.40
20091;DHT22;10205;49.678;6.560;2023-04-15T15:17:23;21.20;35.70
20091;DHT22;10205;49.678;6.560;2023-04-15T15:19:50;21.20;35.90
20091;DHT22;10205;49.678;6.560;2023-04-15T15:22:19;21.20;36.10
20091;DHT22;10205;49.678;6.560;2023-04-15T15:24:46;21.20;36.40
20091;DHT22;10205;49.678;6.560;2023-04-15T15:27:17;21.20;36.40
20091;DHT22;10205;49.678;6.560;2023-04-15T15:29:44;21.20;36.60
20091;DHT22;10205;49.678;6.560;2023-04-15T15:32:12;21.10;36.60
20091;DHT22;10205;49.678;6.560;2023-04-15T15:34:39;21.10;36.70
20091;DHT22;10205;49.678;6.560;2023-04-15T15:37:06;21.10;36.60
20091;DHT22;10205;49.678;6.560;2023-04-15T15:39:35;21.10;36.90
20091;DHT22;10205;49.678;6.560;2023-04-15T15:42:02;21.10;37.30